createdAt,value
2018-04-18T00:00:02.094Z,8.90
2018-04-18T00:02:28.775Z,9.70
2018-04-18T00:04:55.403Z,10.02
2018-04-18T00:07:22.146Z,8.60
2018-04-18T00:09:48.786Z,9.23
2018-04-18T00:12:15.407Z,8.30
2018-04-18T00:14:42.075Z,12.73
2018-04-18T00:17:08.822Z,9.35
2018-04-18T00:19:35.471Z,11.12
2018-04-18T00:22:02.199Z,8.52
2018-04-18T00:24:28.832Z,10.32
2018-04-18T00:26:55.509Z,9.27
2018-04-18T00:29:22.220Z,9.90
2018-04-18T00:31:48.981Z,10.60
2018-04-18T00:34:15.625Z,11.65
2018-04-18T00:36:42.257Z,10.88
2018-04-18T00:39:08.893Z,9.68
2018-04-18T00:41:35.612Z,9.95
2018-04-18T00:44:02.263Z,11.07
2018-04-18T00:46:28.891Z,13.98
2018-04-18T00:48:55.540Z,10.32
2018-04-18T00:51:22.175Z,11.98
2018-04-18T00:53:48.813Z,10.10
2018-04-18T00:56:15.547Z,10.38
2018-04-18T00:58:42.193Z,10.50
2018-04-18T01:01:08.824Z,10.85
2018-04-18T01:03:35.568Z,9.15
2018-04-18T01:06:02.203Z,10.43
2018-04-18T01:08:28.854Z,10.52
2018-04-18T01:10:55.596Z,10.07
2018-04-18T01:13:22.331Z,9.70
2018-04-18T01:15:49.080Z,21.33
2018-04-18T01:18:15.727Z,10.50
2018-04-18T01:20:42.350Z,11.80
2018-04-18T01:23:08.971Z,11.00
2018-04-18T01:25:35.615Z,11.07
2018-04-18T01:28:02.276Z,11.10
2018-04-18T01:30:28.908Z,16.77
2018-04-18T01:32:55.546Z,11.12
2018-04-18T01:35:22.177Z,12.48
2018-04-18T01:37:48.832Z,12.35
2018-04-18T01:40:15.467Z,10.95
2018-04-18T01:42:42.091Z,9.27
2018-04-18T01:45:08.724Z,10.48
2018-04-18T01:47:35.380Z,11.38
2018-04-18T01:50:02.012Z,11.00
2018-04-18T01:52:28.647Z,12.57
2018-04-18T01:54:55.287Z,11.68
2018-04-18T01:57:21.912Z,10.68
2018-04-18T01:59:48.550Z,12.57
2018-04-18T02:02:15.215Z,11.77
2018-04-18T02:04:41.849Z,12.07
2018-04-18T02:07:08.480Z,10.68
2018-04-18T02:09:35.262Z,12.00
2018-04-18T02:12:01.979Z,15.10
2018-04-18T02:14:28.616Z,13.55
2018-04-18T02:16:55.294Z,19.45
2018-04-18T02:19:21.917Z,13.00
2018-04-18T02:21:48.639Z,13.05
2018-04-18T02:24:15.297Z,12.77
2018-04-18T02:26:42.015Z,11.80
2018-04-18T02:29:08.651Z,12.18
2018-04-18T02:31:35.305Z,11.70
2018-04-18T02:34:01.946Z,12.02
2018-04-18T02:36:28.583Z,11.27
2018-04-18T02:38:55.242Z,10.73
2018-04-18T02:41:21.873Z,12.45
2018-04-18T02:43:48.510Z,11.25
2018-04-18T02:46:15.164Z,11.52
2018-04-18T02:48:41.795Z,15.43
2018-04-18T02:51:08.422Z,13.07
2018-04-18T02:53:35.149Z,11.80
2018-04-18T02:56:01.781Z,12.82
2018-04-18T02:58:28.434Z,13.55
2018-04-18T03:00:55.066Z,13.15
2018-04-18T03:03:21.696Z,14.32
2018-04-18T03:05:48.320Z,11.20
2018-04-18T03:08:14.972Z,12.65
2018-04-18T03:10:41.629Z,12.63
2018-04-18T03:13:08.260Z,12.57
2018-04-18T03:15:34.905Z,12.93
2018-04-18T03:18:01.536Z,13.45
2018-04-18T03:20:28.168Z,13.43
2018-04-18T03:22:54.816Z,12.98
2018-04-18T03:25:21.555Z,12.20
2018-04-18T03:27:48.195Z,13.73
2018-04-18T03:30:14.844Z,14.32
2018-04-18T03:32:41.466Z,13.62
2018-04-18T03:35:08.143Z,13.10
2018-04-18T03:37:34.781Z,18.62
2018-04-18T03:40:01.411Z,12.85
2018-04-18T03:42:28.039Z,14.32
2018-04-18T03:44:54.683Z,14.70
2018-04-18T03:47:21.315Z,13.90
2018-04-18T03:49:47.948Z,18.23
2018-04-18T03:52:14.595Z,19.52
2018-04-18T03:54:41.232Z,15.93
2018-04-18T03:57:07.862Z,17.48
2018-04-18T03:59:34.502Z,15.82
2018-04-18T04:02:01.147Z,16.42
2018-04-18T04:04:27.784Z,13.50
2018-04-18T04:06:54.427Z,14.05
2018-04-18T04:09:21.047Z,15.15
2018-04-18T04:11:47.684Z,21.50
2018-04-18T04:14:14.330Z,14.80
2018-04-18T04:16:46.932Z,13.57
2018-04-18T04:19:19.579Z,15.23
2018-04-18T04:21:52.198Z,13.25
2018-04-18T04:24:24.751Z,14.10
2018-04-18T04:26:51.490Z,14.45
2018-04-18T04:29:18.135Z,18.15
2018-04-18T04:31:44.874Z,14.73
2018-04-18T04:34:11.494Z,14.57
2018-04-18T04:36:39.048Z,15.40
2018-04-18T04:39:05.696Z,15.43
2018-04-18T04:41:32.333Z,15.95
2018-04-18T04:43:58.997Z,15.48
2018-04-18T04:46:25.640Z,19.23
2018-04-18T04:48:52.270Z,16.50
2018-04-18T04:51:18.903Z,17.20
2018-04-18T04:53:45.551Z,16.77
2018-04-18T04:56:12.175Z,14.10
2018-04-18T04:58:38.813Z,14.73
2018-04-18T05:01:05.472Z,15.40
2018-04-18T05:03:32.209Z,16.17
2018-04-18T05:05:58.840Z,15.75
2018-04-18T05:08:25.586Z,14.65
2018-04-18T05:10:52.206Z,17.05
2018-04-18T05:13:18.844Z,14.02
2018-04-18T05:15:45.496Z,16.83
2018-04-18T05:18:12.130Z,16.77
2018-04-18T05:20:38.809Z,20.30
2018-04-18T05:23:05.450Z,20.83
2018-04-18T05:25:32.074Z,14.82
2018-04-18T05:27:58.827Z,20.50
2018-04-18T05:30:25.477Z,20.35
2018-04-18T05:32:52.112Z,15.73
2018-04-18T05:35:18.824Z,16.62
2018-04-18T05:37:45.480Z,15.50
2018-04-18T05:40:12.125Z,15.05
2018-04-18T05:42:38.847Z,16.30
2018-04-18T05:45:05.488Z,14.95
2018-04-18T05:47:32.128Z,14.65
2018-04-18T05:49:58.764Z,17.20
2018-04-18T05:52:25.498Z,18.12
2018-04-18T05:54:52.125Z,14.82
2018-04-18T05:57:18.803Z,28.17
2018-04-18T05:59:45.457Z,18.83
2018-04-18T06:02:12.159Z,14.40
2018-04-18T06:04:38.824Z,16.10
2018-04-18T06:07:05.475Z,17.50
2018-04-18T06:09:32.100Z,16.12
2018-04-18T06:11:58.725Z,17.75
2018-04-18T06:14:25.464Z,24.85
2018-04-18T06:16:52.095Z,13.98
2018-04-18T06:19:18.851Z,15.75
2018-04-18T06:21:45.503Z,21.12
2018-04-18T06:24:12.243Z,17.42
2018-04-18T06:26:38.870Z,15.57
2018-04-18T06:29:05.597Z,21.55
2018-04-18T06:31:32.336Z,20.10
2018-04-18T06:33:59.005Z,16.27
2018-04-18T06:36:25.745Z,26.17
2018-04-18T06:38:52.388Z,17.62
2018-04-18T06:41:19.024Z,17.42
2018-04-18T06:43:45.765Z,16.92
2018-04-18T06:46:12.490Z,18.83
2018-04-18T06:48:39.128Z,18.12
2018-04-18T06:51:05.781Z,17.98
2018-04-18T06:53:32.499Z,15.48
2018-04-18T06:55:59.131Z,18.87
2018-04-18T06:58:25.908Z,15.75
2018-04-18T07:00:52.626Z,14.68
2018-04-18T07:03:19.254Z,16.02
2018-04-18T07:05:45.926Z,16.20
2018-04-18T07:08:12.670Z,14.38
2018-04-18T07:10:39.379Z,15.65
2018-04-18T07:13:06.126Z,16.55
2018-04-18T07:15:32.893Z,16.17
2018-04-18T07:17:59.517Z,22.05
2018-04-18T07:20:26.166Z,19.08
2018-04-18T07:22:52.892Z,17.92
2018-04-18T07:25:19.628Z,18.48
2018-04-18T07:27:46.274Z,19.87
2018-04-18T07:30:12.907Z,19.55
2018-04-18T07:32:39.611Z,22.02
2018-04-18T07:35:06.257Z,20.05
2018-04-18T07:37:32.933Z,25.90
2018-04-18T07:39:59.572Z,22.02
2018-04-18T07:42:26.220Z,22.08
2018-04-18T07:44:52.851Z,23.05
2018-04-18T07:47:19.479Z,21.62
2018-04-18T07:49:46.123Z,24.17
2018-04-18T07:52:12.745Z,25.15
2018-04-18T07:54:39.386Z,24.33
2018-04-18T07:57:06.135Z,21.50
2018-04-18T07:59:32.766Z,25.52
2018-04-18T08:01:59.435Z,24.17
2018-04-18T08:04:26.063Z,26.33
2018-04-18T08:06:52.695Z,23.77
2018-04-18T08:09:19.324Z,22.75
2018-04-18T08:11:45.981Z,22.30
2018-04-18T08:14:12.616Z,27.45
2018-04-18T08:16:39.238Z,27.87
2018-04-18T08:19:05.889Z,21.40
2018-04-18T08:21:32.630Z,24.42
2018-04-18T08:23:59.298Z,25.02
2018-04-18T08:26:26.040Z,30.00
2018-04-18T08:28:52.760Z,25.45
2018-04-18T08:31:19.497Z,25.00
2018-04-18T08:33:46.234Z,21.95
2018-04-18T08:36:12.868Z,24.15
2018-04-18T08:38:39.502Z,21.92
2018-04-18T08:41:06.156Z,22.00
2018-04-18T08:43:32.795Z,20.83
2018-04-18T08:45:59.427Z,21.20
2018-04-18T08:48:26.080Z,19.30
2018-04-18T08:50:52.711Z,21.60
2018-04-18T08:53:19.345Z,18.60
2018-04-18T08:55:45.992Z,19.98
2018-04-18T08:58:12.735Z,20.20
2018-04-18T09:00:39.367Z,21.67
2018-04-18T09:03:06.006Z,21.98
2018-04-18T09:05:32.636Z,19.23
2018-04-18T09:07:59.272Z,20.50
2018-04-18T09:10:26.038Z,27.85
2018-04-18T09:12:52.667Z,17.73
2018-04-18T09:15:19.295Z,20.58
2018-04-18T09:17:46.052Z,22.85
2018-04-18T09:20:12.792Z,18.20
2018-04-18T09:22:39.419Z,20.40
2018-04-18T09:25:06.071Z,14.95
2018-04-18T09:27:32.807Z,14.15
2018-04-18T09:29:59.473Z,13.57
2018-04-18T09:32:26.162Z,13.55
2018-04-18T09:34:52.759Z,14.48
2018-04-18T09:37:19.384Z,12.85
2018-04-18T09:39:46.054Z,20.15
2018-04-18T09:42:12.743Z,9.45
2018-04-18T09:44:39.369Z,12.90
2018-04-18T09:47:06.128Z,13.93
2018-04-18T09:49:32.764Z,13.88
2018-04-18T09:51:59.392Z,11.60
2018-04-18T09:54:26.044Z,14.45
2018-04-18T09:56:52.676Z,11.63
2018-04-18T09:59:19.348Z,12.43
2018-04-18T10:01:45.983Z,8.57
2018-04-18T10:04:12.602Z,9.57
2018-04-18T10:06:39.233Z,7.45
2018-04-18T10:09:05.866Z,8.50
2018-04-18T10:11:32.515Z,15.18
2018-04-18T10:13:59.144Z,9.18
2018-04-18T10:16:25.777Z,7.55
2018-04-18T10:18:52.408Z,7.60
2018-04-18T10:21:19.039Z,13.93
2018-04-18T10:23:45.683Z,7.75
2018-04-18T10:26:12.308Z,9.80
2018-04-18T10:28:39.013Z,10.82
2018-04-18T10:31:05.650Z,10.95
2018-04-18T10:33:32.269Z,8.20
2018-04-18T10:35:59.015Z,9.02
2018-04-18T10:38:25.748Z,7.47
2018-04-18T10:40:52.384Z,7.00
2018-04-18T10:43:19.043Z,11.18
2018-04-18T10:45:45.776Z,8.05
2018-04-18T10:48:12.507Z,9.35
2018-04-18T10:50:39.124Z,7.47
2018-04-18T10:53:05.763Z,11.82
2018-04-18T10:55:32.393Z,7.75
2018-04-18T10:57:59.029Z,9.98
2018-04-18T11:00:25.675Z,7.35
2018-04-18T11:02:52.348Z,7.20
2018-04-18T11:05:18.971Z,7.95
2018-04-18T11:07:45.610Z,6.35
2018-04-18T11:10:12.242Z,6.50
2018-04-18T11:12:38.928Z,6.75
2018-04-18T11:15:05.668Z,6.55
2018-04-18T11:17:32.386Z,6.05
2018-04-18T11:19:59.007Z,6.20
2018-04-18T11:22:25.643Z,8.77
2018-04-18T11:24:52.265Z,8.07
2018-04-18T11:27:18.896Z,7.85
2018-04-18T11:29:45.532Z,7.35
2018-04-18T11:32:12.220Z,10.85
2018-04-18T11:34:38.852Z,4.95
2018-04-18T11:37:05.495Z,5.70
2018-04-18T11:39:32.156Z,10.13
2018-04-18T11:41:58.796Z,9.20
2018-04-18T11:44:25.538Z,11.63
2018-04-18T11:46:52.414Z,9.53
2018-04-18T11:49:19.332Z,15.87
2018-04-18T11:51:46.056Z,16.07
2018-04-18T11:54:12.831Z,40.90
2018-04-18T11:56:39.476Z,22.00
2018-04-18T11:59:06.128Z,15.67
2018-04-18T12:01:32.838Z,27.77
2018-04-18T12:03:59.863Z,28.20
2018-04-18T12:06:27.325Z,21.67
2018-04-18T12:08:54.290Z,18.83
2018-04-18T12:11:20.939Z,31.70
2018-04-18T12:13:50.023Z,9.63
2018-04-18T12:16:16.705Z,14.40
2018-04-18T12:18:43.327Z,7.67
2018-04-18T12:21:09.984Z,10.07
2018-04-18T12:23:36.632Z,14.17
2018-04-18T12:26:03.296Z,14.20
2018-04-18T12:28:29.942Z,10.97
2018-04-18T12:30:56.695Z,17.10
2018-04-18T12:33:23.333Z,7.73
2018-04-18T12:35:50.046Z,10.20
2018-04-18T12:38:16.666Z,7.40
2018-04-18T12:40:43.290Z,8.33
2018-04-18T12:43:09.942Z,20.13
2018-04-18T12:45:36.572Z,10.23
2018-04-18T12:48:03.273Z,9.33
2018-04-18T12:50:29.908Z,6.73
2018-04-18T12:52:56.534Z,7.03
2018-04-18T12:55:23.268Z,17.77
2018-04-18T12:57:50.009Z,3.77
2018-04-18T13:00:16.672Z,7.70
2018-04-18T13:02:43.413Z,3.10
2018-04-18T13:05:10.136Z,6.03
2018-04-18T13:07:36.793Z,9.70
2018-04-18T13:10:03.415Z,8.40
2018-04-18T13:12:30.051Z,5.67
2018-04-18T13:14:56.683Z,13.23
2018-04-18T13:17:23.329Z,17.03
2018-04-18T13:19:50.084Z,24.40
2018-04-18T13:22:17.460Z,5.53
2018-04-18T13:24:44.188Z,8.30
2018-04-18T13:27:10.826Z,7.30
2018-04-18T13:29:37.456Z,5.40
2018-04-18T13:32:04.090Z,13.20
2018-04-18T13:34:30.735Z,7.33
2018-04-18T13:36:57.367Z,12.37
2018-04-18T13:39:23.998Z,42.60
2018-04-18T13:41:50.641Z,6.57
2018-04-18T13:44:17.381Z,42.17
2018-04-18T13:46:44.006Z,11.03
2018-04-18T13:49:10.651Z,25.60
2018-04-18T13:51:37.289Z,10.40
2018-04-18T13:54:03.915Z,9.00
2018-04-18T13:56:30.566Z,11.30
2018-04-18T13:58:57.209Z,4.97
2018-04-18T14:01:23.851Z,9.83
2018-04-18T14:03:50.492Z,11.47
2018-04-18T14:06:17.123Z,14.20
2018-04-18T14:08:43.747Z,12.47
2018-04-18T14:11:10.432Z,4.30
2018-04-18T14:13:37.058Z,5.97
2018-04-18T14:16:03.688Z,2.83
2018-04-18T14:18:30.335Z,16.10
2018-04-18T14:20:56.978Z,12.77
2018-04-18T14:23:23.603Z,5.80
2018-04-18T14:25:50.247Z,8.35
2018-04-18T14:28:16.874Z,7.27
2018-04-18T14:30:43.514Z,10.90
2018-04-18T14:33:10.160Z,5.25
2018-04-18T14:35:36.900Z,11.80
2018-04-18T14:38:03.551Z,7.27
2018-04-18T14:40:30.187Z,3.67
2018-04-18T14:42:56.819Z,11.70
2018-04-18T14:45:23.447Z,11.73
2018-04-18T14:47:50.088Z,9.70
2018-04-18T14:50:16.938Z,7.53
2018-04-18T14:52:43.614Z,3.10
2018-04-18T14:55:10.315Z,6.83
2018-04-18T14:57:36.955Z,4.10
2018-04-18T15:00:03.582Z,2.53
2018-04-18T15:02:30.223Z,3.00
2018-04-18T15:04:56.871Z,3.17
2018-04-18T15:07:23.498Z,3.27
2018-04-18T15:09:50.151Z,2.70
2018-04-18T15:12:16.780Z,3.87
2018-04-18T15:14:43.430Z,3.93
2018-04-18T15:17:10.072Z,4.00
2018-04-18T15:19:36.696Z,3.40
2018-04-18T15:22:03.311Z,3.77
2018-04-18T15:24:29.956Z,3.70
2018-04-18T15:26:56.584Z,3.20
2018-04-18T15:31:49.528Z,3.37
2018-04-18T15:34:16.152Z,3.47
2018-04-18T15:36:42.876Z,4.13
2018-04-18T15:39:09.519Z,3.40
2018-04-18T15:41:36.162Z,4.33
2018-04-18T15:44:02.800Z,5.30
2018-04-18T15:46:29.450Z,3.30
2018-04-18T15:48:56.066Z,2.80
2018-04-18T15:51:22.693Z,6.70
2018-04-18T15:53:49.374Z,3.00
2018-04-18T15:56:16.092Z,3.57
2018-04-18T15:58:42.753Z,4.17
2018-04-18T16:01:09.469Z,4.00
2018-04-18T16:03:36.095Z,5.43
2018-04-18T16:06:02.728Z,5.27
2018-04-18T16:08:29.368Z,3.10
2018-04-18T16:10:56.032Z,6.07
2018-04-18T16:13:22.767Z,3.03
2018-04-18T16:15:49.423Z,3.83
2018-04-18T16:18:16.602Z,2.93
2018-04-18T16:20:43.182Z,5.57
2018-04-18T16:23:09.823Z,3.53
2018-04-18T16:25:36.497Z,3.80
2018-04-18T16:28:03.084Z,5.00
2018-04-18T16:30:34.521Z,4.83
2018-04-18T16:33:01.152Z,7.40
2018-04-18T16:35:27.844Z,5.80
2018-04-18T16:37:54.478Z,4.03
2018-04-18T16:40:21.103Z,7.80
2018-04-18T16:42:47.726Z,3.23
2018-04-18T16:45:14.654Z,5.13
2018-04-18T16:47:41.371Z,4.30
2018-04-18T16:50:08.000Z,4.93
2018-04-18T16:52:34.644Z,4.73
2018-04-18T16:55:01.271Z,7.20
2018-04-18T16:57:27.892Z,5.30
2018-04-18T16:59:54.532Z,7.87
2018-04-18T17:02:21.178Z,4.80
2018-04-18T17:04:47.826Z,4.00
2018-04-18T17:07:14.458Z,3.93
2018-04-18T17:09:41.090Z,5.70
2018-04-18T17:12:07.717Z,3.63
2018-04-18T17:14:34.362Z,5.30
2018-04-18T17:17:00.997Z,3.65
2018-04-18T17:19:27.624Z,9.93
2018-04-18T17:21:54.292Z,7.22
2018-04-18T17:24:20.932Z,5.53
2018-04-18T17:26:47.551Z,3.80
2018-04-18T17:29:14.203Z,7.10
2018-04-18T17:31:40.838Z,8.13
2018-04-18T17:34:07.467Z,4.53
2018-04-18T17:36:34.124Z,4.68
2018-04-18T17:39:00.867Z,9.77
2018-04-18T17:41:27.604Z,6.50
2018-04-18T17:43:54.349Z,8.15
2018-04-18T17:46:21.092Z,6.87
2018-04-18T17:48:47.831Z,7.20
2018-04-18T17:51:14.575Z,4.82
2018-04-18T17:53:41.315Z,7.62
2018-04-18T17:56:07.952Z,4.90
2018-04-18T17:58:34.591Z,4.90
2018-04-18T18:01:01.220Z,4.65
2018-04-18T18:03:27.846Z,5.28
2018-04-18T18:05:54.505Z,7.68
2018-04-18T18:08:21.128Z,6.72
2018-04-18T18:10:47.756Z,8.75
2018-04-18T18:13:14.390Z,6.82
2018-04-18T18:15:41.014Z,5.03
2018-04-18T18:18:07.631Z,4.62
2018-04-18T18:20:34.273Z,6.85
2018-04-18T18:23:00.900Z,9.20
2018-04-18T18:25:27.619Z,7.25
2018-04-18T18:27:54.270Z,7.35
2018-04-18T18:30:21.004Z,7.55
2018-04-18T18:32:47.640Z,8.25
2018-04-18T18:35:14.286Z,8.88
2018-04-18T18:37:40.907Z,9.48
2018-04-18T18:40:07.532Z,9.20
2018-04-18T18:42:34.169Z,6.75
2018-04-18T18:45:00.841Z,6.80
2018-04-18T18:47:27.468Z,7.93
2018-04-18T18:49:54.210Z,6.00
2018-04-18T18:52:20.854Z,5.80
2018-04-18T18:54:47.480Z,8.10
2018-04-18T18:57:14.160Z,10.65
2018-04-18T18:59:40.789Z,8.70
2018-04-18T19:02:07.522Z,8.75
2018-04-18T19:04:34.155Z,7.32
2018-04-18T19:07:00.783Z,12.60
2018-04-18T19:09:27.437Z,12.18
2018-04-18T19:11:54.109Z,9.07
2018-04-18T19:14:20.839Z,7.65
2018-04-18T19:16:47.453Z,9.57
2018-04-18T19:19:14.082Z,6.15
2018-04-18T19:21:40.728Z,6.95
2018-04-18T19:24:07.367Z,6.18
2018-04-18T19:26:34.003Z,7.57
2018-04-18T19:29:00.632Z,10.23
2018-04-18T19:31:27.254Z,6.30
2018-04-18T19:33:53.950Z,10.40
2018-04-18T19:36:20.564Z,6.50
2018-04-18T19:38:47.192Z,5.32
2018-04-18T19:41:13.825Z,5.55
2018-04-18T19:43:40.451Z,7.87
2018-04-18T19:46:07.083Z,5.72
2018-04-18T19:48:33.728Z,7.93
2018-04-18T19:51:00.361Z,6.47
2018-04-18T19:53:27.037Z,10.65
2018-04-18T19:55:53.688Z,10.63
2018-04-18T19:58:20.349Z,11.02
2018-04-18T20:00:46.960Z,7.00
2018-04-18T20:03:13.709Z,7.50
2018-04-18T20:05:40.340Z,8.73
2018-04-18T20:08:06.963Z,8.07
2018-04-18T20:10:33.706Z,9.38
2018-04-18T20:13:00.340Z,25.83
2018-04-18T20:15:26.987Z,15.43
2018-04-18T20:17:53.631Z,11.93
2018-04-18T20:20:20.274Z,9.00
2018-04-18T20:22:47.020Z,7.57
2018-04-18T20:25:13.755Z,12.07
2018-04-18T20:27:40.393Z,14.38
2018-04-18T20:30:07.038Z,9.18
2018-04-18T20:32:33.684Z,9.02
2018-04-18T20:35:00.306Z,9.38
2018-04-18T20:37:26.927Z,10.00
2018-04-18T20:39:53.571Z,9.13
2018-04-18T20:42:20.196Z,9.23
2018-04-18T20:44:46.837Z,11.40
2018-04-18T20:47:13.503Z,13.20
2018-04-18T20:49:40.135Z,11.85
2018-04-18T20:52:06.764Z,13.27
2018-04-18T20:54:33.412Z,11.73
2018-04-18T20:57:00.062Z,10.65
2018-04-18T20:59:26.700Z,9.98
2018-04-18T21:01:53.392Z,23.48
2018-04-18T21:04:20.079Z,9.30
2018-04-18T21:06:46.828Z,12.68
2018-04-18T21:09:13.589Z,14.02
2018-04-18T21:11:40.215Z,9.77
2018-04-18T21:14:07.767Z,14.10
2018-04-18T21:16:34.406Z,14.85
2018-04-18T21:19:01.036Z,11.60
2018-04-18T21:21:27.687Z,10.77
2018-04-18T21:23:54.327Z,9.48
2018-04-18T21:26:20.954Z,12.70
2018-04-18T21:28:47.582Z,13.73
2018-04-18T21:31:14.231Z,9.43
2018-04-18T21:33:40.867Z,12.85
2018-04-18T21:36:07.520Z,11.10
2018-04-18T21:38:34.199Z,12.07
2018-04-18T21:41:00.836Z,10.45
2018-04-18T21:43:27.458Z,16.52
2018-04-18T21:45:54.169Z,10.73
2018-04-18T21:48:20.790Z,10.85
2018-04-18T21:50:47.452Z,13.93
2018-04-18T21:53:14.159Z,10.13
2018-04-18T21:55:40.803Z,10.20
2018-04-18T21:58:07.473Z,11.57
2018-04-18T22:14:26.635Z,13.18
2018-04-18T22:16:53.444Z,11.25
2018-04-18T22:19:20.027Z,15.13
2018-04-18T22:21:46.655Z,10.20
2018-04-18T22:24:13.392Z,11.07
2018-04-18T22:26:40.025Z,9.43
2018-04-18T22:29:06.667Z,11.80
2018-04-18T22:31:33.407Z,11.23
2018-04-18T22:34:00.164Z,11.15
2018-04-18T22:36:26.792Z,14.23
2018-04-18T22:38:53.430Z,15.27
2018-04-18T22:41:20.070Z,13.05
2018-04-18T22:43:46.747Z,13.23
2018-04-18T22:46:13.455Z,9.38
2018-04-18T22:48:40.187Z,9.00
2018-04-18T22:51:06.819Z,8.93
2018-04-18T22:53:33.575Z,14.90
2018-04-18T22:56:00.199Z,11.25
2018-04-18T22:58:26.851Z,10.60
2018-04-18T23:00:53.495Z,11.95
2018-04-18T23:03:20.125Z,12.07
2018-04-18T23:05:46.755Z,10.15
2018-04-18T23:08:13.413Z,12.70
2018-04-18T23:10:40.039Z,10.95
2018-04-18T23:13:06.691Z,12.85
2018-04-18T23:15:33.336Z,11.00
2018-04-18T23:17:59.963Z,15.63
2018-04-18T23:20:26.585Z,9.55
2018-04-18T23:22:53.241Z,13.10
2018-04-18T23:25:19.884Z,11.95
2018-04-18T23:27:46.527Z,14.38
2018-04-18T23:30:13.180Z,17.48
2018-04-18T23:32:39.811Z,13.00
2018-04-18T23:35:06.548Z,12.40
2018-04-18T23:37:33.191Z,13.43
2018-04-18T23:39:59.927Z,12.37
2018-04-18T23:42:26.570Z,14.30
2018-04-18T23:44:53.227Z,14.18
2018-04-18T23:47:19.854Z,16.27
2018-04-18T23:49:46.490Z,11.68
2018-04-18T23:52:13.142Z,12.23
2018-04-18T23:54:39.859Z,17.05
2018-04-18T23:57:06.490Z,14.82
2018-04-18T23:59:33.243Z,14.15
